Аэропорт: Пашковский. Краснодар

ICAO: URKK

METAR:
2020-06-04 05:30:00
URKK 040530Z VRB01MPS 9999 SCT017 18/14 Q1012 R23L/CLRD70 NOSIG RMK QFE756
METAR:
2020-06-04 01:52:00
TAF URKK 040152Z 0403/0503 16003MPS 9999 SCT020 FM040600 19003G08MPS 9999 SCT030CB TEMPO 0406/0424 VRB06G12MPS 3100 -TSRA SCT016 BKN030CB